sensor_id;sensor_type;location;lat;lon;timestamp;temperature;humidity
11846;DHT22;5982;37.494;-8.758;2022-11-23T00:01:25;18.10;99.90
11846;DHT22;5982;37.494;-8.758;2022-11-23T00:03:54;18.10;99.90
11846;DHT22;5982;37.494;-8.758;2022-11-23T00:06:24;18.10;99.90
11846;DHT22;5982;37.494;-8.758;2022-11-23T00:08:52;18.10;99.90
11846;DHT22;5982;37.494;-8.758;2022-11-23T00:11:21;18.20;99.90
11846;DHT22;5982;37.494;-8.758;2022-11-23T00:13:49;18.10;99.90
11846;DHT22;5982;37.494;-8.758;2022-11-23T00:16:18;18.10;99.90
11846;DHT22;5982;37.494;-8.758;2022-11-23T00:18:47;18.10;99.90
11846;DHT22;5982;37.494;-8.758;2022-11-23T00:21:16;18.10;99.90
11846;DHT22;5982;37.494;-8.758;2022-11-23T00:23:46;18.10;99.90
11846;DHT22;5982;37.494;-8.758;2022-11-23T00:26:14;18.10;99.90
11846;DHT22;5982;37.494;-8.758;2022-11-23T00:28:43;18.10;99.90
11846;DHT22;5982;37.494;-8.758;2022-11-23T00:31:12;18.10;99.90
11846;DHT22;5982;37.494;-8.758;2022-11-23T00:33:40;18.10;99.90
11846;DHT22;5982;37.494;-8.758;2022-11-23T00:36:09;18.10;99.90
11846;DHT22;5982;37.494;-8.758;2022-11-23T00:38:39;18.10;99.90
11846;DHT22;5982;37.494;-8.758;2022-11-23T00:41:09;18.10;99.90
11846;DHT22;5982;37.494;-8.758;2022-11-23T00:43:38;18.10;99.90
11846;DHT22;5982;37.494;-8.758;2022-11-23T00:46:07;18.10;99.90
11846;DHT22;5982;37.494;-8.758;2022-11-23T00:48:36;18.00;99.90
11846;DHT22;5982;37.494;-8.758;2022-11-23T00:51:05;18.00;99.90
11846;DHT22;5982;37.494;-8.758;2022-11-23T00:53:33;18.00;99.90
11846;DHT22;5982;37.494;-8.758;2022-11-23T00:56:02;18.00;99.90
11846;DHT22;5982;37.494;-8.758;2022-11-23T00:58:32;18.00;99.90
11846;DHT22;5982;37.494;-8.758;2022-11-23T01:01:03;18.00;99.90
11846;DHT22;5982;37.494;-8.758;2022-11-23T01:03:32;18.00;99.90
11846;DHT22;5982;37.494;-8.758;2022-11-23T01:06:06;18.10;99.90
11846;DHT22;5982;37.494;-8.758;2022-11-23T01:08:34;18.10;99.90
11846;DHT22;5982;37.494;-8.758;2022-11-23T01:11:03;18.10;99.90
11846;DHT22;5982;37.494;-8.758;2022-11-23T01:13:33;18.10;99.90
11846;DHT22;5982;37.494;-8.758;2022-11-23T01:16:01;18.20;99.90
11846;DHT22;5982;37.494;-8.758;2022-11-23T01:18:29;18.20;99.90
11846;DHT22;5982;37.494;-8.758;2022-11-23T01:20:59;18.20;99.90
11846;DHT22;5982;37.494;-8.758;2022-11-23T01:23:27;18.20;99.90
11846;DHT22;5982;37.494;-8.758;2022-11-23T01:25:55;18.20;99.90
11846;DHT22;5982;37.494;-8.758;2022-11-23T01:28:23;18.10;99.90
11846;DHT22;5982;37.494;-8.758;2022-11-23T01:30:52;18.10;99.90
11846;DHT22;5982;37.494;-8.758;2022-11-23T01:33:20;18.10;99.90
11846;DHT22;5982;37.494;-8.758;2022-11-23T01:35:48;18.10;99.90
11846;DHT22;5982;37.494;-8.758;2022-11-23T01:38:16;18.00;99.90
11846;DHT22;5982;37.494;-8.758;2022-11-23T01:40:44;18.00;99.90
11846;DHT22;5982;37.494;-8.758;2022-11-23T01:43:13;18.00;99.90
11846;DHT22;5982;37.494;-8.758;2022-11-23T01:45:42;18.00;99.90
11846;DHT22;5982;37.494;-8.758;2022-11-23T01:48:15;18.00;99.90
11846;DHT22;5982;37.494;-8.758;2022-11-23T01:50:45;18.00;99.90
11846;DHT22;5982;37.494;-8.758;2022-11-23T01:53:15;18.00;99.90
11846;DHT22;5982;37.494;-8.758;2022-11-23T01:55:43;18.00;99.90
11846;DHT22;5982;37.494;-8.758;2022-11-23T01:58:13;18.00;99.90
11846;DHT22;5982;37.494;-8.758;2022-11-23T02:00:43;18.00;99.90
11846;DHT22;5982;37.494;-8.758;2022-11-23T02:03:11;18.00;99.90
11846;DHT22;5982;37.494;-8.758;2022-11-23T02:05:42;18.00;99.90
11846;DHT22;5982;37.494;-8.758;2022-11-23T02:08:11;18.00;99.90
11846;DHT22;5982;37.494;-8.758;2022-11-23T02:10:39;18.00;99.90
11846;DHT22;5982;37.494;-8.758;2022-11-23T02:13:08;18.00;99.90
11846;DHT22;5982;37.494;-8.758;2022-11-23T02:15:37;18.00;99.90
11846;DHT22;5982;37.494;-8.758;2022-11-23T02:18:07;18.00;99.90
11846;DHT22;5982;37.494;-8.758;2022-11-23T02:20:38;17.90;99.90
11846;DHT22;5982;37.494;-8.758;2022-11-23T02:23:08;17.90;99.90
11846;DHT22;5982;37.494;-8.758;2022-11-23T02:25:49;17.80;99.90
11846;DHT22;5982;37.494;-8.758;2022-11-23T02:28:21;17.80;99.90
11846;DHT22;5982;37.494;-8.758;2022-11-23T02:30:52;17.80;99.90
11846;DHT22;5982;37.494;-8.758;2022-11-23T02:33:20;17.80;99.90
11846;DHT22;5982;37.494;-8.758;2022-11-23T02:35:50;17.70;99.90
11846;DHT22;5982;37.494;-8.758;2022-11-23T02:38:19;17.70;99.90
11846;DHT22;5982;37.494;-8.758;2022-11-23T02:40:47;17.70;99.90
11846;DHT22;5982;37.494;-8.758;2022-11-23T02:43:17;17.70;99.90
11846;DHT22;5982;37.494;-8.758;2022-11-23T02:45:45;17.70;99.90
11846;DHT22;5982;37.494;-8.758;2022-11-23T02:48:16;17.70;99.90
11846;DHT22;5982;37.494;-8.758;2022-11-23T02:50:44;17.70;99.90
11846;DHT22;5982;37.494;-8.758;2022-11-23T02:53:12;17.70;99.90
11846;DHT22;5982;37.494;-8.758;2022-11-23T02:55:40;17.60;99.90
11846;DHT22;5982;37.494;-8.758;2022-11-23T02:58:07;17.60;99.90
11846;DHT22;5982;37.494;-8.758;2022-11-23T03:00:37;17.60;99.90
11846;DHT22;5982;37.494;-8.758;2022-11-23T03:03:05;17.60;99.90
11846;DHT22;5982;37.494;-8.758;2022-11-23T03:05:33;17.50;99.90
11846;DHT22;5982;37.494;-8.758;2022-11-23T03:08:00;17.50;99.90
11846;DHT22;5982;37.494;-8.758;2022-11-23T03:10:28;17.50;99.90
11846;DHT22;5982;37.494;-8.758;2022-11-23T03:12:56;17.40;99.90
11846;DHT22;5982;37.494;-8.758;2022-11-23T03:15:24;17.40;99.90
11846;DHT22;5982;37.494;-8.758;2022-11-23T03:17:54;17.40;99.90
11846;DHT22;5982;37.494;-8.758;2022-11-23T03:20:23;17.40;99.90
11846;DHT22;5982;37.494;-8.758;2022-11-23T03:22:51;17.40;99.90
11846;DHT22;5982;37.494;-8.758;2022-11-23T03:25:19;17.40;99.90
11846;DHT22;5982;37.494;-8.758;2022-11-23T03:27:46;17.40;99.90
11846;DHT22;5982;37.494;-8.758;2022-11-23T03:30:14;17.40;99.90
11846;DHT22;5982;37.494;-8.758;2022-11-23T03:32:42;17.40;99.90
11846;DHT22;5982;37.494;-8.758;2022-11-23T03:35:11;17.50;99.90
11846;DHT22;5982;37.494;-8.758;2022-11-23T03:37:39;17.50;99.90
11846;DHT22;5982;37.494;-8.758;2022-11-23T03:40:07;17.50;99.90
11846;DHT22;5982;37.494;-8.758;2022-11-23T03:42:38;17.60;99.90
11846;DHT22;5982;37.494;-8.758;2022-11-23T03:45:06;17.60;99.90
11846;DHT22;5982;37.494;-8.758;2022-11-23T03:47:35;17.60;99.90
11846;DHT22;5982;37.494;-8.758;2022-11-23T03:50:03;17.70;99.90
11846;DHT22;5982;37.494;-8.758;2022-11-23T03:52:33;17.70;99.90
11846;DHT22;5982;37.494;-8.758;2022-11-23T03:55:00;17.70;99.90
11846;DHT22;5982;37.494;-8.758;2022-11-23T03:57:28;17.70;99.90
11846;DHT22;5982;37.494;-8.758;2022-11-23T03:59:56;17.70;99.90
11846;DHT22;5982;37.494;-8.758;2022-11-23T04:02:24;17.70;99.90
11846;DHT22;5982;37.494;-8.758;2022-11-23T04:04:51;17.70;99.90
11846;DHT22;5982;37.494;-8.758;2022-11-23T04:07:19;17.80;99.90
11846;DHT22;5982;37.494;-8.758;2022-11-23T04:09:48;17.80;99.90
11846;DHT22;5982;37.494;-8.758;2022-11-23T04:12:16;17.80;99.90
11846;DHT22;5982;37.494;-8.758;2022-11-23T04:14:44;17.80;99.90
11846;DHT22;5982;37.494;-8.758;2022-11-23T04:17:12;17.80;99.90
11846;DHT22;5982;37.494;-8.758;2022-11-23T04:19:39;17.80;99.90
11846;DHT22;5982;37.494;-8.758;2022-11-23T04:22:07;17.80;99.90
11846;DHT22;5982;37.494;-8.758;2022-11-23T04:24:35;17.80;99.90
11846;DHT22;5982;37.494;-8.758;2022-11-23T04:27:04;17.80;99.90
11846;DHT22;5982;37.494;-8.758;2022-11-23T04:29:32;17.90;99.90
11846;DHT22;5982;37.494;-8.758;2022-11-23T04:32:00;17.90;99.90
11846;DHT22;5982;37.494;-8.758;2022-11-23T04:34:27;17.90;99.90
11846;DHT22;5982;37.494;-8.758;2022-11-23T04:36:55;17.90;99.90
11846;DHT22;5982;37.494;-8.758;2022-11-23T04:39:23;17.90;99.90
11846;DHT22;5982;37.494;-8.758;2022-11-23T04:41:51;17.90;99.90
11846;DHT22;5982;37.494;-8.758;2022-11-23T04:44:20;17.90;99.90
11846;DHT22;5982;37.494;-8.758;2022-11-23T04:46:48;17.90;99.90
11846;DHT22;5982;37.494;-8.758;2022-11-23T04:49:16;17.90;99.90
11846;DHT22;5982;37.494;-8.758;2022-11-23T04:51:43;17.80;99.90
11846;DHT22;5982;37.494;-8.758;2022-11-23T04:54:11;17.80;99.90
11846;DHT22;5982;37.494;-8.758;2022-11-23T04:56:39;17.80;99.90
11846;DHT22;5982;37.494;-8.758;2022-11-23T04:59:07;17.80;99.90
11846;DHT22;5982;37.494;-8.758;2022-11-23T05:01:36;17.80;99.90
11846;DHT22;5982;37.494;-8.758;2022-11-23T05:04:04;17.80;99.90
11846;DHT22;5982;37.494;-8.758;2022-11-23T05:06:32;17.80;99.90
11846;DHT22;5982;37.494;-8.758;2022-11-23T05:09:00;17.70;99.90
11846;DHT22;5982;37.494;-8.758;2022-11-23T05:11:28;17.70;99.90
11846;DHT22;5982;37.494;-8.758;2022-11-23T05:13:55;17.80;99.90
11846;DHT22;5982;37.494;-8.758;2022-11-23T05:16:23;17.70;99.90
11846;DHT22;5982;37.494;-8.758;2022-11-23T05:18:52;17.70;99.90
11846;DHT22;5982;37.494;-8.758;2022-11-23T05:21:20;17.70;99.90
11846;DHT22;5982;37.494;-8.758;2022-11-23T05:23:48;17.70;99.90
11846;DHT22;5982;37.494;-8.758;2022-11-23T05:26:16;17.70;99.90
11846;DHT22;5982;37.494;-8.758;2022-11-23T05:28:44;17.70;99.90
11846;DHT22;5982;37.494;-8.758;2022-11-23T05:31:12;17.70;99.90
11846;DHT22;5982;37.494;-8.758;2022-11-23T05:33:39;17.60;99.90
11846;DHT22;5982;37.494;-8.758;2022-11-23T05:36:09;17.60;99.90
11846;DHT22;5982;37.494;-8.758;2022-11-23T05:38:38;17.60;99.90
11846;DHT22;5982;37.494;-8.758;2022-11-23T05:41:06;17.60;99.90
11846;DHT22;5982;37.494;-8.758;2022-11-23T05:43:34;17.60;99.90
11846;DHT22;5982;37.494;-8.758;2022-11-23T05:46:02;17.70;99.90
11846;DHT22;5982;37.494;-8.758;2022-11-23T05:48:30;17.70;99.90
11846;DHT22;5982;37.494;-8.758;2022-11-23T05:50:57;17.70;99.90
11846;DHT22;5982;37.494;-8.758;2022-11-23T05:53:27;17.60;99.90
11846;DHT22;5982;37.494;-8.758;2022-11-23T05:55:57;17.60;99.90
11846;DHT22;5982;37.494;-8.758;2022-11-23T05:58:25;17.60;99.90
11846;DHT22;5982;37.494;-8.758;2022-11-23T06:00:56;17.60;99.90
11846;DHT22;5982;37.494;-8.758;2022-11-23T06:03:24;17.60;99.90
11846;DHT22;5982;37.494;-8.758;2022-11-23T06:05:52;17.60;99.90
11846;DHT22;5982;37.494;-8.758;2022-11-23T06:08:20;17.70;99.90
11846;DHT22;5982;37.494;-8.758;2022-11-23T06:10:49;17.70;99.90
11846;DHT22;5982;37.494;-8.758;2022-11-23T06:13:17;17.70;99.90
11846;DHT22;5982;37.494;-8.758;2022-11-23T06:15:45;17.70;99.90
11846;DHT22;5982;37.494;-8.758;2022-11-23T06:18:13;17.70;99.90
11846;DHT22;5982;37.494;-8.758;2022-11-23T06:20:40;17.70;99.90
11846;DHT22;5982;37.494;-8.758;2022-11-23T06:23:08;17.70;99.90
11846;DHT22;5982;37.494;-8.758;2022-11-23T06:25:36;17.70;99.90
11846;DHT22;5982;37.494;-8.758;2022-11-23T06:28:06;17.70;99.90
11846;DHT22;5982;37.494;-8.758;2022-11-23T06:30:33;17.70;99.90
11846;DHT22;5982;37.494;-8.758;2022-11-23T06:33:02;17.70;99.90
11846;DHT22;5982;37.494;-8.758;2022-11-23T06:35:30;17.80;99.90
11846;DHT22;5982;37.494;-8.758;2022-11-23T06:37:58;17.80;99.90
11846;DHT22;5982;37.494;-8.758;2022-11-23T06:40:25;17.80;99.90
11846;DHT22;5982;37.494;-8.758;2022-11-23T06:42:56;17.80;99.90
11846;DHT22;5982;37.494;-8.758;2022-11-23T06:45:26;17.80;99.90
11846;DHT22;5982;37.494;-8.758;2022-11-23T06:47:54;17.80;99.90
11846;DHT22;5982;37.494;-8.758;2022-11-23T06:50:22;17.80;99.90
11846;DHT22;5982;37.494;-8.758;2022-11-23T06:52:52;17.80;99.90
11846;DHT22;5982;37.494;-8.758;2022-11-23T06:55:21;17.80;99.90
11846;DHT22;5982;37.494;-8.758;2022-11-23T06:57:49;17.80;99.90
11846;DHT22;5982;37.494;-8.758;2022-11-23T07:00:18;17.80;99.90
11846;DHT22;5982;37.494;-8.758;2022-11-23T07:02:51;17.80;99.90
11846;DHT22;5982;37.494;-8.758;2022-11-23T07:05:19;17.70;99.90
11846;DHT22;5982;37.494;-8.758;2022-11-23T07:07:47;17.70;99.90
11846;DHT22;5982;37.494;-8.758;2022-11-23T07:10:15;17.70;99.90
11846;DHT22;5982;37.494;-8.758;2022-11-23T07:12:43;17.70;99.90
11846;DHT22;5982;37.494;-8.758;2022-11-23T07:15:11;17.70;99.90
11846;DHT22;5982;37.494;-8.758;2022-11-23T07:17:40;17.70;99.90
11846;DHT22;5982;37.494;-8.758;2022-11-23T07:20:11;17.70;99.90
11846;DHT22;5982;37.494;-8.758;2022-11-23T07:22:39;17.70;99.90
11846;DHT22;5982;37.494;-8.758;2022-11-23T07:25:07;17.70;99.90
11846;DHT22;5982;37.494;-8.758;2022-11-23T07:27:36;17.70;99.90
11846;DHT22;5982;37.494;-8.758;2022-11-23T07:30:04;17.70;99.90
11846;DHT22;5982;37.494;-8.758;2022-11-23T07:32:32;17.70;99.90
11846;DHT22;5982;37.494;-8.758;2022-11-23T07:35:00;17.70;99.90
11846;DHT22;5982;37.494;-8.758;2022-11-23T07:37:29;17.70;99.90
11846;DHT22;5982;37.494;-8.758;2022-11-23T07:39:57;17.70;99.90
11846;DHT22;5982;37.494;-8.758;2022-11-23T07:42:43;17.70;99.90
11846;DHT22;5982;37.494;-8.758;2022-11-23T07:45:11;17.80;99.90
11846;DHT22;5982;37.494;-8.758;2022-11-23T07:47:39;17.80;99.90
11846;DHT22;5982;37.494;-8.758;2022-11-23T07:50:07;17.80;99.90
11846;DHT22;5982;37.494;-8.758;2022-11-23T07:52:38;17.90;99.90
11846;DHT22;5982;37.494;-8.758;2022-11-23T07:55:06;17.90;99.90
11846;DHT22;5982;37.494;-8.758;2022-11-23T07:57:35;17.90;99.90
11846;DHT22;5982;37.494;-8.758;2022-11-23T08:00:03;18.00;99.90
11846;DHT22;5982;37.494;-8.758;2022-11-23T08:02:31;18.00;99.90
11846;DHT22;5982;37.494;-8.758;2022-11-23T08:04:59;18.00;99.90
11846;DHT22;5982;37.494;-8.758;2022-11-23T08:07:27;18.10;99.90
11846;DHT22;5982;37.494;-8.758;2022-11-23T08:09:57;18.10;99.90
11846;DHT22;5982;37.494;-8.758;2022-11-23T08:12:24;18.10;99.90
11846;DHT22;5982;37.494;-8.758;2022-11-23T08:14:52;18.10;99.90
11846;DHT22;5982;37.494;-8.758;2022-11-23T08:17:20;18.10;99.90
11846;DHT22;5982;37.494;-8.758;2022-11-23T08:19:48;18.20;99.90
11846;DHT22;5982;37.494;-8.758;2022-11-23T08:22:16;18.30;99.90
11846;DHT22;5982;37.494;-8.758;2022-11-23T08:24:44;18.30;99.90
11846;DHT22;5982;37.494;-8.758;2022-11-23T08:27:14;18.40;99.90
11846;DHT22;5982;37.494;-8.758;2022-11-23T08:29:42;18.40;99.90
11846;DHT22;5982;37.494;-8.758;2022-11-23T08:32:10;18.50;99.90
11846;DHT22;5982;37.494;-8.758;2022-11-23T08:34:38;18.50;99.90
11846;DHT22;5982;37.494;-8.758;2022-11-23T08:37:06;18.50;99.90
11846;DHT22;5982;37.494;-8.758;2022-11-23T08:39:33;18.50;99.90
11846;DHT22;5982;37.494;-8.758;2022-11-23T08:42:01;18.60;99.90
11846;DHT22;5982;37.494;-8.758;2022-11-23T08:44:31;18.70;99.90
11846;DHT22;5982;37.494;-8.758;2022-11-23T08:46:59;18.80;99.90
11846;DHT22;5982;37.494;-8.758;2022-11-23T08:49:27;18.90;99.90
11846;DHT22;5982;37.494;-8.758;2022-11-23T08:51:54;19.00;99.90
11846;DHT22;5982;37.494;-8.758;2022-11-23T08:54:22;19.10;99.90
11846;DHT22;5982;37.494;-8.758;2022-11-23T08:56:50;19.10;99.90
11846;DHT22;5982;37.494;-8.758;2022-11-23T08:59:18;19.10;99.90
11846;DHT22;5982;37.494;-8.758;2022-11-23T09:01:47;19.10;99.90
11846;DHT22;5982;37.494;-8.758;2022-11-23T09:04:15;19.10;99.90
11846;DHT22;5982;37.494;-8.758;2022-11-23T09:06:43;19.10;99.90
11846;DHT22;5982;37.494;-8.758;2022-11-23T09:09:11;19.10;99.90
11846;DHT22;5982;37.494;-8.758;2022-11-23T09:11:41;19.10;99.90
11846;DHT22;5982;37.494;-8.758;2022-11-23T09:14:09;19.00;99.90
11846;DHT22;5982;37.494;-8.758;2022-11-23T09:16:36;19.10;99.90
11846;DHT22;5982;37.494;-8.758;2022-11-23T09:19:06;19.10;99.90
11846;DHT22;5982;37.494;-8.758;2022-11-23T09:21:36;19.20;99.90
11846;DHT22;5982;37.494;-8.758;2022-11-23T09:24:04;19.20;99.90
11846;DHT22;5982;37.494;-8.758;2022-11-23T09:26:33;19.30;99.90
11846;DHT22;5982;37.494;-8.758;2022-11-23T09:29:02;19.30;99.90
11846;DHT22;5982;37.494;-8.758;2022-11-23T09:31:30;19.30;99.90
11846;DHT22;5982;37.494;-8.758;2022-11-23T09:33:58;19.30;99.90
11846;DHT22;5982;37.494;-8.758;2022-11-23T09:36:27;19.30;99.90
11846;DHT22;5982;37.494;-8.758;2022-11-23T09:38:55;19.20;99.90
11846;DHT22;5982;37.494;-8.758;2022-11-23T09:41:29;19.10;99.90
11846;DHT22;5982;37.494;-8.758;2022-11-23T09:44:23;19.10;99.90
11846;DHT22;5982;37.494;-8.758;2022-11-23T09:47:01;19.20;99.90
11846;DHT22;5982;37.494;-8.758;2022-11-23T09:49:37;19.50;99.90
11846;DHT22;5982;37.494;-8.758;2022-11-23T09:52:13;19.80;99.90
11846;DHT22;5982;37.494;-8.758;2022-11-23T09:54:44;19.80;99.90
11846;DHT22;5982;37.494;-8.758;2022-11-23T09:57:13;20.10;99.90
11846;DHT22;5982;37.494;-8.758;2022-11-23T09:59:46;20.30;99.90
11846;DHT22;5982;37.494;-8.758;2022-11-23T10:02:17;20.70;99.90
11846;DHT22;5982;37.494;-8.758;2022-11-23T10:04:47;20.90;99.90
11846;DHT22;5982;37.494;-8.758;2022-11-23T10:07:21;21.20;99.90
11846;DHT22;5982;37.494;-8.758;2022-11-23T10:09:56;21.30;99.90
11846;DHT22;5982;37.494;-8.758;2022-11-23T10:12:33;21.40;99.90
11846;DHT22;5982;37.494;-8.758;2022-11-23T10:15:11;21.40;99.90
11846;DHT22;5982;37.494;-8.758;2022-11-23T10:20:44;21.60;99.90
11846;DHT22;5982;37.494;-8.758;2022-11-23T10:23:33;21.50;99.90
11846;DHT22;5982;37.494;-8.758;2022-11-23T10:26:11;21.60;99.90
11846;DHT22;5982;37.494;-8.758;2022-11-23T10:28:41;21.60;99.90
11846;DHT22;5982;37.494;-8.758;2022-11-23T10:31:11;21.60;99.90
11846;DHT22;5982;37.494;-8.758;2022-11-23T10:33:41;21.60;99.90
11846;DHT22;5982;37.494;-8.758;2022-11-23T10:36:15;21.70;99.90
11846;DHT22;5982;37.494;-8.758;2022-11-23T10:38:44;21.80;99.90
11846;DHT22;5982;37.494;-8.758;2022-11-23T10:41:15;21.90;99.90
11846;DHT22;5982;37.494;-8.758;2022-11-23T10:43:44;21.70;99.90
11846;DHT22;5982;37.494;-8.758;2022-11-23T10:46:24;21.60;99.90
11846;DHT22;5982;37.494;-8.758;2022-11-23T10:49:07;21.50;99.90
11846;DHT22;5982;37.494;-8.758;2022-11-23T10:51:49;21.70;99.90
11846;DHT22;5982;37.494;-8.758;2022-11-23T10:54:21;21.90;99.90
11846;DHT22;5982;37.494;-8.758;2022-11-23T10:56:51;21.90;99.90
11846;DHT22;5982;37.494;-8.758;2022-11-23T10:59:26;21.80;99.90
11846;DHT22;5982;37.494;-8.758;2022-11-23T11:01:59;21.70;99.90
11846;DHT22;5982;37.494;-8.758;2022-11-23T11:04:28;21.50;99.90
11846;DHT22;5982;37.494;-8.758;2022-11-23T11:07:09;21.40;99.90
11846;DHT22;5982;37.494;-8.758;2022-11-23T11:09:44;21.30;99.90
11846;DHT22;5982;37.494;-8.758;2022-11-23T11:12:15;21.40;99.90
11846;DHT22;5982;37.494;-8.758;2022-11-23T11:17:31;21.70;99.90
11846;DHT22;5982;37.494;-8.758;2022-11-23T11:19:59;21.80;99.90
11846;DHT22;5982;37.494;-8.758;2022-11-23T11:22:31;21.90;99.90
11846;DHT22;5982;37.494;-8.758;2022-11-23T11:25:02;21.90;99.90
11846;DHT22;5982;37.494;-8.758;2022-11-23T11:27:31;21.90;99.90
11846;DHT22;5982;37.494;-8.758;2022-11-23T11:30:02;22.00;99.90
11846;DHT22;5982;37.494;-8.758;2022-11-23T11:32:33;21.90;99.90
11846;DHT22;5982;37.494;-8.758;2022-11-23T11:35:09;21.90;99.90
11846;DHT22;5982;37.494;-8.758;2022-11-23T11:37:41;21.90;99.90
11846;DHT22;5982;37.494;-8.758;2022-11-23T11:40:17;21.90;99.90
11846;DHT22;5982;37.494;-8.758;2022-11-23T11:42:49;22.00;99.90
11846;DHT22;5982;37.494;-8.758;2022-11-23T11:45:21;22.10;99.90
11846;DHT22;5982;37.494;-8.758;2022-11-23T11:47:53;22.10;99.90
11846;DHT22;5982;37.494;-8.758;2022-11-23T11:50:25;22.00;99.90
11846;DHT22;5982;37.494;-8.758;2022-11-23T11:52:57;22.00;99.90
11846;DHT22;5982;37.494;-8.758;2022-11-23T11:55:32;21.90;99.90
11846;DHT22;5982;37.494;-8.758;2022-11-23T11:58:08;22.00;99.90
11846;DHT22;5982;37.494;-8.758;2022-11-23T12:00:37;22.10;99.90
11846;DHT22;5982;37.494;-8.758;2022-11-23T12:03:09;22.00;99.90
11846;DHT22;5982;37.494;-8.758;2022-11-23T12:05:45;22.00;99.90
11846;DHT22;5982;37.494;-8.758;2022-11-23T12:08:15;22.10;99.90
11846;DHT22;5982;37.494;-8.758;2022-11-23T12:10:49;22.20;99.90
11846;DHT22;5982;37.494;-8.758;2022-11-23T12:13:19;22.30;99.90
11846;DHT22;5982;37.494;-8.758;2022-11-23T12:15:49;22.40;99.90
11846;DHT22;5982;37.494;-8.758;2022-11-23T12:18:29;22.40;99.90
11846;DHT22;5982;37.494;-8.758;2022-11-23T12:21:17;22.30;99.90
11846;DHT22;5982;37.494;-8.758;2022-11-23T12:24:07;22.60;99.90
11846;DHT22;5982;37.494;-8.758;2022-11-23T12:26:45;22.90;99.90
11846;DHT22;5982;37.494;-8.758;2022-11-23T12:29:39;23.00;99.90
11846;DHT22;5982;37.494;-8.758;2022-11-23T12:32:29;22.90;99.90
11846;DHT22;5982;37.494;-8.758;2022-11-23T12:35:12;22.80;99.90
11846;DHT22;5982;37.494;-8.758;2022-11-23T12:37:51;22.70;99.90
11846;DHT22;5982;37.494;-8.758;2022-11-23T12:40:37;22.90;99.90
11846;DHT22;5982;37.494;-8.758;2022-11-23T12:43:17;22.90;99.90
11846;DHT22;5982;37.494;-8.758;2022-11-23T12:45:54;22.70;99.90
11846;DHT22;5982;37.494;-8.758;2022-11-23T12:48:36;22.60;99.90
11846;DHT22;5982;37.494;-8.758;2022-11-23T12:51:13;22.60;99.90
11846;DHT22;5982;37.494;-8.758;2022-11-23T12:53:49;22.70;99.90
11846;DHT22;5982;37.494;-8.758;2022-11-23T12:56:23;22.70;99.90
11846;DHT22;5982;37.494;-8.758;2022-11-23T12:58:58;22.70;99.90
11846;DHT22;5982;37.494;-8.758;2022-11-23T13:01:28;22.60;99.90
11846;DHT22;5982;37.494;-8.758;2022-11-23T13:13:01;22.30;99.90
11846;DHT22;5982;37.494;-8.758;2022-11-23T13:15:48;22.20;99.90
11846;DHT22;5982;37.494;-8.758;2022-11-23T13:18:29;22.10;99.90
11846;DHT22;5982;37.494;-8.758;2022-11-23T13:21:16;22.00;99.90
11846;DHT22;5982;37.494;-8.758;2022-11-23T13:23:46;21.80;99.90
11846;DHT22;5982;37.494;-8.758;2022-11-23T13:26:14;21.70;99.90
11846;DHT22;5982;37.494;-8.758;2022-11-23T13:28:44;21.70;99.90
11846;DHT22;5982;37.494;-8.758;2022-11-23T13:31:21;21.70;99.90
11846;DHT22;5982;37.494;-8.758;2022-11-23T13:33:51;21.70;99.90
11846;DHT22;5982;37.494;-8.758;2022-11-23T13:36:32;21.70;99.90
11846;DHT22;5982;37.494;-8.758;2022-11-23T13:39:03;21.70;99.90
11846;DHT22;5982;37.494;-8.758;2022-11-23T13:44:28;21.80;99.90
11846;DHT22;5982;37.494;-8.758;2022-11-23T13:47:02;21.90;99.90
11846;DHT22;5982;37.494;-8.758;2022-11-23T13:49:42;22.00;99.90
11846;DHT22;5982;37.494;-8.758;2022-11-23T13:52:19;22.10;99.90
11846;DHT22;5982;37.494;-8.758;2022-11-23T13:54:54;22.10;99.90
11846;DHT22;5982;37.494;-8.758;2022-11-23T13:57:26;22.00;99.90
11846;DHT22;5982;37.494;-8.758;2022-11-23T14:03:04;21.90;99.90
11846;DHT22;5982;37.494;-8.758;2022-11-23T14:06:23;21.90;99.90
11846;DHT22;5982;37.494;-8.758;2022-11-23T14:08:58;21.80;99.90
11846;DHT22;5982;37.494;-8.758;2022-11-23T14:11:28;21.80;99.90
11846;DHT22;5982;37.494;-8.758;2022-11-23T14:13:57;21.70;99.90
11846;DHT22;5982;37.494;-8.758;2022-11-23T14:16:33;21.70;99.90
11846;DHT22;5982;37.494;-8.758;2022-11-23T14:19:16;21.70;99.90
11846;DHT22;5982;37.494;-8.758;2022-11-23T14:21:49;21.60;99.90
11846;DHT22;5982;37.494;-8.758;2022-11-23T14:24:37;21.50;99.90
11846;DHT22;5982;37.494;-8.758;2022-11-23T14:27:29;21.60;99.90
11846;DHT22;5982;37.494;-8.758;2022-11-23T14:30:04;21.60;99.90
11846;DHT22;5982;37.494;-8.758;2022-11-23T14:35:31;21.50;99.90
11846;DHT22;5982;37.494;-8.758;2022-11-23T14:38:19;21.50;99.90
11846;DHT22;5982;37.494;-8.758;2022-11-23T14:41:00;21.50;99.90
11846;DHT22;5982;37.494;-8.758;2022-11-23T14:43:31;21.50;99.90
11846;DHT22;5982;37.494;-8.758;2022-11-23T14:46:00;21.40;99.90
11846;DHT22;5982;37.494;-8.758;2022-11-23T14:48:29;21.40;99.90
11846;DHT22;5982;37.494;-8.758;2022-11-23T14:50:59;21.40;99.90
11846;DHT22;5982;37.494;-8.758;2022-11-23T14:53:29;21.30;99.90
11846;DHT22;5982;37.494;-8.758;2022-11-23T14:55:58;21.30;99.90
11846;DHT22;5982;37.494;-8.758;2022-11-23T14:58:27;21.30;99.90
11846;DHT22;5982;37.494;-8.758;2022-11-23T15:00:57;21.30;99.90
11846;DHT22;5982;37.494;-8.758;2022-11-23T15:03:28;21.30;99.90
11846;DHT22;5982;37.494;-8.758;2022-11-23T15:06:02;21.30;99.90
11846;DHT22;5982;37.494;-8.758;2022-11-23T15:08:35;21.30;99.90
11846;DHT22;5982;37.494;-8.758;2022-11-23T15:11:10;21.20;99.90
11846;DHT22;5982;37.494;-8.758;2022-11-23T15:13:43;21.10;99.90
11846;DHT22;5982;37.494;-8.758;2022-11-23T15:16:12;21.10;99.90
11846;DHT22;5982;37.494;-8.758;2022-11-23T15:18:41;21.00;99.90
11846;DHT22;5982;37.494;-8.758;2022-11-23T15:21:15;21.00;99.90
11846;DHT22;5982;37.494;-8.758;2022-11-23T15:23:45;20.90;99.90
11846;DHT22;5982;37.494;-8.758;2022-11-23T15:26:14;20.90;99.90
11846;DHT22;5982;37.494;-8.758;2022-11-23T15:28:43;20.90;99.90
11846;DHT22;5982;37.494;-8.758;2022-11-23T15:31:18;21.00;99.90
11846;DHT22;5982;37.494;-8.758;2022-11-23T15:33:53;21.00;99.90
11846;DHT22;5982;37.494;-8.758;2022-11-23T15:36:24;20.90;99.90
11846;DHT22;5982;37.494;-8.758;2022-11-23T15:38:53;20.90;99.90
11846;DHT22;5982;37.494;-8.758;2022-11-23T15:41:21;21.00;99.90
11846;DHT22;5982;37.494;-8.758;2022-11-23T15:43:50;21.00;99.90
11846;DHT22;5982;37.494;-8.758;2022-11-23T15:46:19;21.00;99.90
11846;DHT22;5982;37.494;-8.758;2022-11-23T15:48:50;21.00;99.90
11846;DHT22;5982;37.494;-8.758;2022-11-23T15:51:21;21.00;99.90
11846;DHT22;5982;37.494;-8.758;2022-11-23T15:53:52;20.90;99.90
11846;DHT22;5982;37.494;-8.758;2022-11-23T15:56:21;20.80;99.90
11846;DHT22;5982;37.494;-8.758;2022-11-23T15:58:51;20.80;99.90
11846;DHT22;5982;37.494;-8.758;2022-11-23T16:01:19;20.70;99.90
11846;DHT22;5982;37.494;-8.758;2022-11-23T16:03:48;20.60;99.90
11846;DHT22;5982;37.494;-8.758;2022-11-23T16:06:37;20.60;99.90
11846;DHT22;5982;37.494;-8.758;2022-11-23T16:12:01;20.40;99.90
11846;DHT22;5982;37.494;-8.758;2022-11-23T16:14:30;20.30;99.90
11846;DHT22;5982;37.494;-8.758;2022-11-23T16:17:13;20.30;99.90
11846;DHT22;5982;37.494;-8.758;2022-11-23T16:19:45;20.20;99.90